sensor_id;sensor_type;location;lat;lon;timestamp;temperature;humidity
4651;DHT22;2338;49.602;8.722;2023-03-12T00:01:17;0.70;99.90
4651;DHT22;2338;49.602;8.722;2023-03-12T00:04:04;0.70;99.90
4651;DHT22;2338;49.602;8.722;2023-03-12T00:06:50;0.80;99.90
4651;DHT22;2338;49.602;8.722;2023-03-12T00:09:37;0.70;99.90
4651;DHT22;2338;49.602;8.722;2023-03-12T00:12:24;0.70;99.90
4651;DHT22;2338;49.602;8.722;2023-03-12T00:15:10;0.50;99.90
4651;DHT22;2338;49.602;8.722;2023-03-12T00:17:56;0.40;99.90
4651;DHT22;2338;49.602;8.722;2023-03-12T00:20:42;0.30;99.90
4651;DHT22;2338;49.602;8.722;2023-03-12T00:23:28;0.20;99.90
4651;DHT22;2338;49.602;8.722;2023-03-12T00:26:14;0.20;99.90
4651;DHT22;2338;49.602;8.722;2023-03-12T00:29:01;0.10;99.90
4651;DHT22;2338;49.602;8.722;2023-03-12T00:31:46;0.10;99.90
4651;DHT22;2338;49.602;8.722;2023-03-12T00:34:34;0.10;99.90
4651;DHT22;2338;49.602;8.722;2023-03-12T00:37:21;0.10;99.90
4651;DHT22;2338;49.602;8.722;2023-03-12T00:40:08;0.20;99.90
4651;DHT22;2338;49.602;8.722;2023-03-12T00:42:54;0.30;99.90
4651;DHT22;2338;49.602;8.722;2023-03-12T00:45:41;0.30;99.90
4651;DHT22;2338;49.602;8.722;2023-03-12T00:48:27;0.50;99.90
4651;DHT22;2338;49.602;8.722;2023-03-12T00:51:13;0.50;99.90
4651;DHT22;2338;49.602;8.722;2023-03-12T00:53:59;0.50;99.90
4651;DHT22;2338;49.602;8.722;2023-03-12T00:56:44;0.50;99.90
4651;DHT22;2338;49.602;8.722;2023-03-12T00:59:29;0.50;99.90
4651;DHT22;2338;49.602;8.722;2023-03-12T01:02:16;0.50;99.90
4651;DHT22;2338;49.602;8.722;2023-03-12T01:05:03;0.40;99.90
4651;DHT22;2338;49.602;8.722;2023-03-12T01:07:49;0.20;99.90
4651;DHT22;2338;49.602;8.722;2023-03-12T01:10:35;0.10;99.90
4651;DHT22;2338;49.602;8.722;2023-03-12T01:13:22;-0.10;99.90
4651;DHT22;2338;49.602;8.722;2023-03-12T01:16:10;-0.20;99.90
4651;DHT22;2338;49.602;8.722;2023-03-12T01:18:58;-0.10;99.90
4651;DHT22;2338;49.602;8.722;2023-03-12T01:21:44;-0.10;99.90
4651;DHT22;2338;49.602;8.722;2023-03-12T01:24:30;0.00;99.90
4651;DHT22;2338;49.602;8.722;2023-03-12T01:27:16;0.20;99.90
4651;DHT22;2338;49.602;8.722;2023-03-12T01:30:02;0.20;99.90
4651;DHT22;2338;49.602;8.722;2023-03-12T01:32:48;0.20;99.90
4651;DHT22;2338;49.602;8.722;2023-03-12T01:35:37;0.30;99.90
4651;DHT22;2338;49.602;8.722;2023-03-12T01:38:23;0.30;99.90
4651;DHT22;2338;49.602;8.722;2023-03-12T01:41:09;0.40;99.90
4651;DHT22;2338;49.602;8.722;2023-03-12T01:43:54;0.30;99.90
4651;DHT22;2338;49.602;8.722;2023-03-12T01:46:41;0.30;99.90
4651;DHT22;2338;49.602;8.722;2023-03-12T01:49:29;0.40;99.90
4651;DHT22;2338;49.602;8.722;2023-03-12T01:52:20;0.50;99.90
4651;DHT22;2338;49.602;8.722;2023-03-12T01:55:09;0.60;99.90
4651;DHT22;2338;49.602;8.722;2023-03-12T01:57:57;0.60;99.90
4651;DHT22;2338;49.602;8.722;2023-03-12T02:00:43;0.60;99.90
4651;DHT22;2338;49.602;8.722;2023-03-12T02:03:30;0.60;99.90
4651;DHT22;2338;49.602;8.722;2023-03-12T02:06:19;0.50;99.90
4651;DHT22;2338;49.602;8.722;2023-03-12T02:09:08;0.60;99.90
4651;DHT22;2338;49.602;8.722;2023-03-12T02:11:56;0.70;99.90
4651;DHT22;2338;49.602;8.722;2023-03-12T02:14:41;0.60;99.90
4651;DHT22;2338;49.602;8.722;2023-03-12T02:17:27;0.60;99.90
4651;DHT22;2338;49.602;8.722;2023-03-12T02:20:17;0.50;99.90
4651;DHT22;2338;49.602;8.722;2023-03-12T02:23:08;0.50;99.90
4651;DHT22;2338;49.602;8.722;2023-03-12T02:25:56;0.50;99.90
4651;DHT22;2338;49.602;8.722;2023-03-12T02:28:42;0.50;99.90
4651;DHT22;2338;49.602;8.722;2023-03-12T02:31:34;0.60;99.90
4651;DHT22;2338;49.602;8.722;2023-03-12T02:34:21;0.50;99.90
4651;DHT22;2338;49.602;8.722;2023-03-12T02:37:07;0.50;99.90
4651;DHT22;2338;49.602;8.722;2023-03-12T02:39:56;0.60;99.90
4651;DHT22;2338;49.602;8.722;2023-03-12T02:42:46;0.70;99.90
4651;DHT22;2338;49.602;8.722;2023-03-12T02:45:33;0.60;99.90
4651;DHT22;2338;49.602;8.722;2023-03-12T02:48:20;0.70;99.90
4651;DHT22;2338;49.602;8.722;2023-03-12T02:51:05;0.70;99.90
4651;DHT22;2338;49.602;8.722;2023-03-12T02:53:51;0.60;99.90
4651;DHT22;2338;49.602;8.722;2023-03-12T02:56:38;0.70;99.90
4651;DHT22;2338;49.602;8.722;2023-03-12T02:59:26;0.80;99.90
4651;DHT22;2338;49.602;8.722;2023-03-12T03:02:11;0.80;99.90
4651;DHT22;2338;49.602;8.722;2023-03-12T03:04:57;0.90;99.90
4651;DHT22;2338;49.602;8.722;2023-03-12T03:07:42;0.90;99.90
4651;DHT22;2338;49.602;8.722;2023-03-12T03:10:28;1.00;99.90
4651;DHT22;2338;49.602;8.722;2023-03-12T03:13:13;1.00;99.90
4651;DHT22;2338;49.602;8.722;2023-03-12T03:16:07;1.10;99.90
4651;DHT22;2338;49.602;8.722;2023-03-12T03:18:53;1.20;99.90
4651;DHT22;2338;49.602;8.722;2023-03-12T03:21:38;1.30;99.90
4651;DHT22;2338;49.602;8.722;2023-03-12T03:24:24;1.30;99.90
4651;DHT22;2338;49.602;8.722;2023-03-12T03:27:10;1.30;99.90
4651;DHT22;2338;49.602;8.722;2023-03-12T03:29:55;1.30;99.90
4651;DHT22;2338;49.602;8.722;2023-03-12T03:32:42;1.30;99.90
4651;DHT22;2338;49.602;8.722;2023-03-12T03:35:28;1.30;99.90
4651;DHT22;2338;49.602;8.722;2023-03-12T03:38:14;1.30;99.90
4651;DHT22;2338;49.602;8.722;2023-03-12T03:41:00;1.30;99.90
4651;DHT22;2338;49.602;8.722;2023-03-12T03:43:46;1.30;99.90
4651;DHT22;2338;49.602;8.722;2023-03-12T03:46:32;1.30;99.90
4651;DHT22;2338;49.602;8.722;2023-03-12T03:49:19;1.30;99.90
4651;DHT22;2338;49.602;8.722;2023-03-12T03:52:05;1.30;99.90
4651;DHT22;2338;49.602;8.722;2023-03-12T03:54:51;1.20;99.90
4651;DHT22;2338;49.602;8.722;2023-03-12T03:57:37;1.30;99.90
4651;DHT22;2338;49.602;8.722;2023-03-12T04:00:23;1.20;99.90
4651;DHT22;2338;49.602;8.722;2023-03-12T04:03:09;1.20;99.90
4651;DHT22;2338;49.602;8.722;2023-03-12T04:05:58;1.10;99.90
4651;DHT22;2338;49.602;8.722;2023-03-12T04:08:44;1.10;99.90
4651;DHT22;2338;49.602;8.722;2023-03-12T04:11:30;1.20;99.90
4651;DHT22;2338;49.602;8.722;2023-03-12T04:14:15;1.30;99.90
4651;DHT22;2338;49.602;8.722;2023-03-12T04:17:01;1.40;99.90
4651;DHT22;2338;49.602;8.722;2023-03-12T04:19:47;1.40;99.90
4651;DHT22;2338;49.602;8.722;2023-03-12T04:22:34;1.20;99.90
4651;DHT22;2338;49.602;8.722;2023-03-12T04:25:20;1.20;99.90
4651;DHT22;2338;49.602;8.722;2023-03-12T04:28:06;1.20;99.90
4651;DHT22;2338;49.602;8.722;2023-03-12T04:30:55;1.20;99.90
4651;DHT22;2338;49.602;8.722;2023-03-12T04:33:42;1.20;99.90
4651;DHT22;2338;49.602;8.722;2023-03-12T04:36:28;1.20;99.90
4651;DHT22;2338;49.602;8.722;2023-03-12T04:39:16;1.40;99.90
4651;DHT22;2338;49.602;8.722;2023-03-12T04:42:02;1.40;99.90
4651;DHT22;2338;49.602;8.722;2023-03-12T04:44:49;1.40;99.90
4651;DHT22;2338;49.602;8.722;2023-03-12T04:47:35;1.40;99.90
4651;DHT22;2338;49.602;8.722;2023-03-12T04:50:21;1.30;99.90
4651;DHT22;2338;49.602;8.722;2023-03-12T04:53:07;1.40;99.90
4651;DHT22;2338;49.602;8.722;2023-03-12T04:56:00;1.40;99.90
4651;DHT22;2338;49.602;8.722;2023-03-12T04:58:46;1.50;99.90
4651;DHT22;2338;49.602;8.722;2023-03-12T05:01:33;1.50;99.90
4651;DHT22;2338;49.602;8.722;2023-03-12T05:04:19;1.50;99.90
4651;DHT22;2338;49.602;8.722;2023-03-12T05:07:05;1.60;99.90
4651;DHT22;2338;49.602;8.722;2023-03-12T05:09:50;1.60;99.90
4651;DHT22;2338;49.602;8.722;2023-03-12T05:12:37;1.70;99.90
4651;DHT22;2338;49.602;8.722;2023-03-12T05:15:23;1.70;99.90
4651;DHT22;2338;49.602;8.722;2023-03-12T05:18:09;1.70;99.90
4651;DHT22;2338;49.602;8.722;2023-03-12T05:20:59;1.60;99.90
4651;DHT22;2338;49.602;8.722;2023-03-12T05:23:45;1.70;99.90
4651;DHT22;2338;49.602;8.722;2023-03-12T05:26:32;1.60;99.90
4651;DHT22;2338;49.602;8.722;2023-03-12T05:29:19;1.70;99.90
4651;DHT22;2338;49.602;8.722;2023-03-12T05:32:05;1.70;99.90
4651;DHT22;2338;49.602;8.722;2023-03-12T05:34:51;1.70;99.90
4651;DHT22;2338;49.602;8.722;2023-03-12T05:37:37;1.80;99.90
4651;DHT22;2338;49.602;8.722;2023-03-12T05:40:25;1.80;99.90
4651;DHT22;2338;49.602;8.722;2023-03-12T05:43:11;1.80;99.90
4651;DHT22;2338;49.602;8.722;2023-03-12T05:46:03;1.90;99.90
4651;DHT22;2338;49.602;8.722;2023-03-12T05:48:49;1.90;99.90
4651;DHT22;2338;49.602;8.722;2023-03-12T05:51:35;1.80;99.90
4651;DHT22;2338;49.602;8.722;2023-03-12T05:54:21;1.80;99.90
4651;DHT22;2338;49.602;8.722;2023-03-12T05:57:06;1.80;99.90
4651;DHT22;2338;49.602;8.722;2023-03-12T05:59:52;1.90;99.90
4651;DHT22;2338;49.602;8.722;2023-03-12T06:02:39;1.90;99.90
4651;DHT22;2338;49.602;8.722;2023-03-12T06:05:25;1.90;99.90
4651;DHT22;2338;49.602;8.722;2023-03-12T06:08:11;1.90;99.90
4651;DHT22;2338;49.602;8.722;2023-03-12T06:10:56;1.90;99.90
4651;DHT22;2338;49.602;8.722;2023-03-12T06:13:42;1.90;99.90
4651;DHT22;2338;49.602;8.722;2023-03-12T06:16:28;1.90;99.90
4651;DHT22;2338;49.602;8.722;2023-03-12T06:19:15;1.90;99.90
4651;DHT22;2338;49.602;8.722;2023-03-12T06:22:00;1.90;99.90
4651;DHT22;2338;49.602;8.722;2023-03-12T06:24:47;2.00;99.90
4651;DHT22;2338;49.602;8.722;2023-03-12T06:27:33;2.10;99.90
4651;DHT22;2338;49.602;8.722;2023-03-12T06:30:18;2.00;99.90
4651;DHT22;2338;49.602;8.722;2023-03-12T06:33:04;2.00;99.90
4651;DHT22;2338;49.602;8.722;2023-03-12T06:35:54;1.90;99.90
4651;DHT22;2338;49.602;8.722;2023-03-12T06:38:40;1.80;99.90
4651;DHT22;2338;49.602;8.722;2023-03-12T06:41:26;1.70;99.90
4651;DHT22;2338;49.602;8.722;2023-03-12T06:44:11;1.80;99.90
4651;DHT22;2338;49.602;8.722;2023-03-12T06:46:57;1.80;99.90
4651;DHT22;2338;49.602;8.722;2023-03-12T06:49:43;1.90;99.90
4651;DHT22;2338;49.602;8.722;2023-03-12T06:52:30;1.90;99.90
4651;DHT22;2338;49.602;8.722;2023-03-12T06:55:16;2.00;99.90
4651;DHT22;2338;49.602;8.722;2023-03-12T06:58:02;2.00;99.90
4651;DHT22;2338;49.602;8.722;2023-03-12T07:00:48;2.00;99.90
4651;DHT22;2338;49.602;8.722;2023-03-12T07:03:34;2.00;99.90
4651;DHT22;2338;49.602;8.722;2023-03-12T07:06:22;2.00;99.90
4651;DHT22;2338;49.602;8.722;2023-03-12T07:09:09;2.20;99.90
4651;DHT22;2338;49.602;8.722;2023-03-12T07:11:54;2.20;99.90
4651;DHT22;2338;49.602;8.722;2023-03-12T07:14:40;2.20;99.90
4651;DHT22;2338;49.602;8.722;2023-03-12T07:17:26;2.20;99.90
4651;DHT22;2338;49.602;8.722;2023-03-12T07:20:12;2.20;99.90
4651;DHT22;2338;49.602;8.722;2023-03-12T07:22:58;2.20;99.90
4651;DHT22;2338;49.602;8.722;2023-03-12T07:25:45;2.20;99.90
4651;DHT22;2338;49.602;8.722;2023-03-12T07:28:31;2.30;99.90
4651;DHT22;2338;49.602;8.722;2023-03-12T07:31:17;2.30;99.90
4651;DHT22;2338;49.602;8.722;2023-03-12T07:34:03;2.40;99.90
4651;DHT22;2338;49.602;8.722;2023-03-12T07:36:49;2.50;99.90
4651;DHT22;2338;49.602;8.722;2023-03-12T07:39:35;2.60;99.90
4651;DHT22;2338;49.602;8.722;2023-03-12T07:42:22;2.60;99.90
4651;DHT22;2338;49.602;8.722;2023-03-12T07:45:08;2.60;99.90
4651;DHT22;2338;49.602;8.722;2023-03-12T07:47:54;2.70;99.90
4651;DHT22;2338;49.602;8.722;2023-03-12T07:50:40;2.70;99.90
4651;DHT22;2338;49.602;8.722;2023-03-12T07:53:26;2.70;99.90
4651;DHT22;2338;49.602;8.722;2023-03-12T07:56:11;2.70;99.90
4651;DHT22;2338;49.602;8.722;2023-03-12T07:58:58;2.70;99.90
4651;DHT22;2338;49.602;8.722;2023-03-12T08:01:44;2.80;99.90
4651;DHT22;2338;49.602;8.722;2023-03-12T08:04:30;2.80;99.90
4651;DHT22;2338;49.602;8.722;2023-03-12T08:07:15;2.80;99.90
4651;DHT22;2338;49.602;8.722;2023-03-12T08:10:05;2.80;99.90
4651;DHT22;2338;49.602;8.722;2023-03-12T08:12:51;2.80;99.90
4651;DHT22;2338;49.602;8.722;2023-03-12T08:15:38;2.80;99.90
4651;DHT22;2338;49.602;8.722;2023-03-12T08:18:24;2.80;99.90
4651;DHT22;2338;49.602;8.722;2023-03-12T08:21:10;2.90;99.90
4651;DHT22;2338;49.602;8.722;2023-03-12T08:23:57;2.90;99.90
4651;DHT22;2338;49.602;8.722;2023-03-12T08:26:43;2.90;99.90
4651;DHT22;2338;49.602;8.722;2023-03-12T08:29:28;2.90;99.90
4651;DHT22;2338;49.602;8.722;2023-03-12T08:32:17;3.00;99.90
4651;DHT22;2338;49.602;8.722;2023-03-12T08:35:03;3.10;99.90
4651;DHT22;2338;49.602;8.722;2023-03-12T08:37:49;3.00;99.90
4651;DHT22;2338;49.602;8.722;2023-03-12T08:40:35;3.00;99.90
4651;DHT22;2338;49.602;8.722;2023-03-12T08:43:20;3.00;99.90
4651;DHT22;2338;49.602;8.722;2023-03-12T08:46:06;3.10;99.90
4651;DHT22;2338;49.602;8.722;2023-03-12T08:48:53;3.10;99.90
4651;DHT22;2338;49.602;8.722;2023-03-12T08:51:38;3.10;99.90
4651;DHT22;2338;49.602;8.722;2023-03-12T08:54:24;3.10;99.90
4651;DHT22;2338;49.602;8.722;2023-03-12T08:57:09;3.10;99.90
4651;DHT22;2338;49.602;8.722;2023-03-12T08:59:55;3.10;99.90
4651;DHT22;2338;49.602;8.722;2023-03-12T09:02:42;3.10;99.90
4651;DHT22;2338;49.602;8.722;2023-03-12T09:05:30;3.10;99.90
4651;DHT22;2338;49.602;8.722;2023-03-12T09:08:16;3.10;99.90
4651;DHT22;2338;49.602;8.722;2023-03-12T09:11:01;3.10;99.90
4651;DHT22;2338;49.602;8.722;2023-03-12T09:13:47;3.20;99.90
4651;DHT22;2338;49.602;8.722;2023-03-12T09:16:33;3.20;99.90
4651;DHT22;2338;49.602;8.722;2023-03-12T09:19:19;3.20;99.90
4651;DHT22;2338;49.602;8.722;2023-03-12T09:22:06;3.20;99.90
4651;DHT22;2338;49.602;8.722;2023-03-12T09:24:52;3.30;99.90
4651;DHT22;2338;49.602;8.722;2023-03-12T09:27:38;3.30;99.90
4651;DHT22;2338;49.602;8.722;2023-03-12T09:30:24;3.40;99.90
4651;DHT22;2338;49.602;8.722;2023-03-12T09:33:10;3.50;99.90
4651;DHT22;2338;49.602;8.722;2023-03-12T09:35:57;3.50;99.90
4651;DHT22;2338;49.602;8.722;2023-03-12T09:38:44;3.60;99.90
4651;DHT22;2338;49.602;8.722;2023-03-12T09:41:32;3.60;99.90
4651;DHT22;2338;49.602;8.722;2023-03-12T09:44:25;3.60;99.90
4651;DHT22;2338;49.602;8.722;2023-03-12T09:47:22;3.60;99.90
4651;DHT22;2338;49.602;8.722;2023-03-12T09:50:19;3.70;99.90
4651;DHT22;2338;49.602;8.722;2023-03-12T09:53:10;3.80;99.90
4651;DHT22;2338;49.602;8.722;2023-03-12T09:56:02;3.70;99.90
4651;DHT22;2338;49.602;8.722;2023-03-12T09:58:52;3.80;99.90
4651;DHT22;2338;49.602;8.722;2023-03-12T10:01:42;3.90;99.90
4651;DHT22;2338;49.602;8.722;2023-03-12T10:04:37;3.90;99.90
4651;DHT22;2338;49.602;8.722;2023-03-12T10:07:30;4.00;99.90
4651;DHT22;2338;49.602;8.722;2023-03-12T10:10:29;4.00;99.90
4651;DHT22;2338;49.602;8.722;2023-03-12T10:13:41;4.00;99.90
4651;DHT22;2338;49.602;8.722;2023-03-12T10:16:40;4.10;99.90
4651;DHT22;2338;49.602;8.722;2023-03-12T10:19:55;4.10;99.90
4651;DHT22;2338;49.602;8.722;2023-03-12T10:22:50;4.40;99.90
4651;DHT22;2338;49.602;8.722;2023-03-12T10:25:43;4.50;99.90
4651;DHT22;2338;49.602;8.722;2023-03-12T10:28:36;4.70;99.90
4651;DHT22;2338;49.602;8.722;2023-03-12T10:31:27;4.70;99.90
4651;DHT22;2338;49.602;8.722;2023-03-12T10:34:16;4.80;99.90
4651;DHT22;2338;49.602;8.722;2023-03-12T10:37:11;4.90;99.90
4651;DHT22;2338;49.602;8.722;2023-03-12T10:39:59;4.90;99.90
4651;DHT22;2338;49.602;8.722;2023-03-12T10:42:45;4.90;99.90
4651;DHT22;2338;49.602;8.722;2023-03-12T10:45:35;4.90;99.90
4651;DHT22;2338;49.602;8.722;2023-03-12T10:48:24;5.00;99.90
4651;DHT22;2338;49.602;8.722;2023-03-12T10:51:11;5.10;99.90
4651;DHT22;2338;49.602;8.722;2023-03-12T10:53:57;5.10;99.90
4651;DHT22;2338;49.602;8.722;2023-03-12T10:56:50;5.20;99.90
4651;DHT22;2338;49.602;8.722;2023-03-12T10:59:37;5.30;99.90
4651;DHT22;2338;49.602;8.722;2023-03-12T11:02:32;5.30;99.90
4651;DHT22;2338;49.602;8.722;2023-03-12T11:05:20;5.40;99.90
4651;DHT22;2338;49.602;8.722;2023-03-12T11:08:19;5.40;99.90
4651;DHT22;2338;49.602;8.722;2023-03-12T11:11:06;5.40;99.90
4651;DHT22;2338;49.602;8.722;2023-03-12T11:14:05;5.40;99.90
4651;DHT22;2338;49.602;8.722;2023-03-12T11:16:52;5.50;99.90
4651;DHT22;2338;49.602;8.722;2023-03-12T11:19:39;5.50;99.90
4651;DHT22;2338;49.602;8.722;2023-03-12T11:22:30;5.60;99.90
4651;DHT22;2338;49.602;8.722;2023-03-12T11:25:21;5.60;99.90
4651;DHT22;2338;49.602;8.722;2023-03-12T11:28:16;5.70;99.90
4651;DHT22;2338;49.602;8.722;2023-03-12T11:31:02;5.70;99.90
4651;DHT22;2338;49.602;8.722;2023-03-12T11:33:51;5.70;99.90
4651;DHT22;2338;49.602;8.722;2023-03-12T11:36:44;5.80;99.90
4651;DHT22;2338;49.602;8.722;2023-03-12T11:39:46;5.80;99.90
4651;DHT22;2338;49.602;8.722;2023-03-12T11:42:45;5.90;99.90
4651;DHT22;2338;49.602;8.722;2023-03-12T11:45:39;6.00;99.90
4651;DHT22;2338;49.602;8.722;2023-03-12T11:48:36;6.00;99.90
4651;DHT22;2338;49.602;8.722;2023-03-12T11:51:36;6.20;99.90
4651;DHT22;2338;49.602;8.722;2023-03-12T11:54:40;6.30;99.90
4651;DHT22;2338;49.602;8.722;2023-03-12T11:57:35;6.40;99.90
4651;DHT22;2338;49.602;8.722;2023-03-12T12:00:30;6.40;99.90
4651;DHT22;2338;49.602;8.722;2023-03-12T12:03:56;6.50;99.90
4651;DHT22;2338;49.602;8.722;2023-03-12T12:06:55;6.50;99.90
4651;DHT22;2338;49.602;8.722;2023-03-12T12:09:48;6.70;99.90
4651;DHT22;2338;49.602;8.722;2023-03-12T12:12:47;6.80;99.90
4651;DHT22;2338;49.602;8.722;2023-03-12T12:15:39;6.80;99.90
4651;DHT22;2338;49.602;8.722;2023-03-12T12:18:40;7.00;99.90
4651;DHT22;2338;49.602;8.722;2023-03-12T12:21:48;7.20;99.90
4651;DHT22;2338;49.602;8.722;2023-03-12T12:24:45;7.40;99.90
4651;DHT22;2338;49.602;8.722;2023-03-12T12:27:37;7.50;99.90
4651;DHT22;2338;49.602;8.722;2023-03-12T12:30:31;7.70;99.90
4651;DHT22;2338;49.602;8.722;2023-03-12T12:33:29;7.90;99.90
4651;DHT22;2338;49.602;8.722;2023-03-12T12:36:18;8.20;99.90
4651;DHT22;2338;49.602;8.722;2023-03-12T12:39:10;8.50;99.90
4651;DHT22;2338;49.602;8.722;2023-03-12T12:42:01;8.70;99.90
4651;DHT22;2338;49.602;8.722;2023-03-12T12:44:50;9.10;99.90
4651;DHT22;2338;49.602;8.722;2023-03-12T12:47:43;9.40;99.90
4651;DHT22;2338;49.602;8.722;2023-03-12T12:50:34;9.70;99.90
4651;DHT22;2338;49.602;8.722;2023-03-12T12:53:24;9.80;99.90
4651;DHT22;2338;49.602;8.722;2023-03-12T12:56:17;10.00;99.90
4651;DHT22;2338;49.602;8.722;2023-03-12T12:59:23;10.00;99.90
4651;DHT22;2338;49.602;8.722;2023-03-12T13:02:16;10.10;99.90
4651;DHT22;2338;49.602;8.722;2023-03-12T13:05:17;10.50;99.90
4651;DHT22;2338;49.602;8.722;2023-03-12T13:08:04;10.60;99.90
4651;DHT22;2338;49.602;8.722;2023-03-12T13:10:55;10.60;99.90
4651;DHT22;2338;49.602;8.722;2023-03-12T13:13:42;10.60;99.90
4651;DHT22;2338;49.602;8.722;2023-03-12T13:16:33;10.50;99.90
4651;DHT22;2338;49.602;8.722;2023-03-12T13:19:24;10.50;99.90
4651;DHT22;2338;49.602;8.722;2023-03-12T13:22:21;10.50;99.90
4651;DHT22;2338;49.602;8.722;2023-03-12T13:25:23;10.70;99.90
4651;DHT22;2338;49.602;8.722;2023-03-12T13:28:33;11.00;99.90
4651;DHT22;2338;49.602;8.722;2023-03-12T13:31:36;11.30;99.90
4651;DHT22;2338;49.602;8.722;2023-03-12T13:34:41;11.40;99.90
4651;DHT22;2338;49.602;8.722;2023-03-12T13:37:57;11.30;99.90
4651;DHT22;2338;49.602;8.722;2023-03-12T13:40:54;11.40;99.90
4651;DHT22;2338;49.602;8.722;2023-03-12T13:43:51;11.40;99.90
4651;DHT22;2338;49.602;8.722;2023-03-12T13:46:41;11.40;99.90
4651;DHT22;2338;49.602;8.722;2023-03-12T13:49:35;11.50;99.90
4651;DHT22;2338;49.602;8.722;2023-03-12T13:52:23;11.60;99.90
4651;DHT22;2338;49.602;8.722;2023-03-12T13:55:18;11.70;99.90
4651;DHT22;2338;49.602;8.722;2023-03-12T13:58:08;11.80;99.90
4651;DHT22;2338;49.602;8.722;2023-03-12T14:00:55;11.90;99.90
4651;DHT22;2338;49.602;8.722;2023-03-12T14:03:45;12.10;99.90
4651;DHT22;2338;49.602;8.722;2023-03-12T14:06:46;12.20;99.90
4651;DHT22;2338;49.602;8.722;2023-03-12T14:09:36;12.40;99.90
4651;DHT22;2338;49.602;8.722;2023-03-12T14:12:29;12.70;99.90
4651;DHT22;2338;49.602;8.722;2023-03-12T14:15:23;13.20;99.90
4651;DHT22;2338;49.602;8.722;2023-03-12T14:18:16;13.60;99.90
4651;DHT22;2338;49.602;8.722;2023-03-12T14:21:08;13.50;99.90
4651;DHT22;2338;49.602;8.722;2023-03-12T14:23:56;13.10;99.90
4651;DHT22;2338;49.602;8.722;2023-03-12T14:26:45;12.80;99.90
4651;DHT22;2338;49.602;8.722;2023-03-12T14:29:35;12.70;99.90
4651;DHT22;2338;49.602;8.722;2023-03-12T14:32:25;12.60;99.90
4651;DHT22;2338;49.602;8.722;2023-03-12T14:35:17;12.30;99.90
4651;DHT22;2338;49.602;8.722;2023-03-12T14:38:09;12.20;99.90
4651;DHT22;2338;49.602;8.722;2023-03-12T14:40:59;12.10;99.90
4651;DHT22;2338;49.602;8.722;2023-03-12T14:43:50;12.10;99.90
4651;DHT22;2338;49.602;8.722;2023-03-12T14:46:36;12.00;99.90
4651;DHT22;2338;49.602;8.722;2023-03-12T14:49:30;11.90;99.90
4651;DHT22;2338;49.602;8.722;2023-03-12T14:52:21;11.80;99.90
4651;DHT22;2338;49.602;8.722;2023-03-12T14:55:12;11.80;99.90
4651;DHT22;2338;49.602;8.722;2023-03-12T14:58:03;11.70;99.90
4651;DHT22;2338;49.602;8.722;2023-03-12T15:00:55;11.70;99.90
4651;DHT22;2338;49.602;8.722;2023-03-12T15:03:44;11.60;99.90
4651;DHT22;2338;49.602;8.722;2023-03-12T15:06:32;11.60;99.90
4651;DHT22;2338;49.602;8.722;2023-03-12T15:09:21;11.50;99.90
4651;DHT22;2338;49.602;8.722;2023-03-12T15:12:18;11.50;99.90
4651;DHT22;2338;49.602;8.722;2023-03-12T15:15:07;11.50;99.90
4651;DHT22;2338;49.602;8.722;2023-03-12T15:17:54;11.50;99.90
4651;DHT22;2338;49.602;8.722;2023-03-12T15:20:39;11.50;99.90
4651;DHT22;2338;49.602;8.722;2023-03-12T15:23:28;11.50;99.90
4651;DHT22;2338;49.602;8.722;2023-03-12T15:26:27;11.60;99.90
4651;DHT22;2338;49.602;8.722;2023-03-12T15:29:19;11.60;99.90
4651;DHT22;2338;49.602;8.722;2023-03-12T15:32:12;11.60;99.90
4651;DHT22;2338;49.602;8.722;2023-03-12T15:34:59;11.60;99.90
4651;DHT22;2338;49.602;8.722;2023-03-12T15:37:56;11.60;99.90
4651;DHT22;2338;49.602;8.722;2023-03-12T15:40:47;11.60;99.90
4651;DHT22;2338;49.602;8.722;2023-03-12T15:43:33;11.60;99.90
4651;DHT22;2338;49.602;8.722;2023-03-12T15:46:22;11.60;99.90
4651;DHT22;2338;49.602;8.722;2023-03-12T15:49:19;11.60;99.90
4651;DHT22;2338;49.602;8.722;2023-03-12T15:52:23;11.60;99.90
4651;DHT22;2338;49.602;8.722;2023-03-12T15:55:22;11.50;99.90
4651;DHT22;2338;49.602;8.722;2023-03-12T15:58:23;11.50;99.90
4651;DHT22;2338;49.602;8.722;2023-03-12T16:01:11;11.50;99.90
4651;DHT22;2338;49.602;8.722;2023-03-12T16:03:58;11.50;99.90
4651;DHT22;2338;49.602;8.722;2023-03-12T16:06:44;11.50;99.90
4651;DHT22;2338;49.602;8.722;2023-03-12T16:09:32;11.50;99.90
4651;DHT22;2338;49.602;8.722;2023-03-12T16:12:19;11.50;99.90
4651;DHT22;2338;49.602;8.722;2023-03-12T16:15:05;11.50;99.90
4651;DHT22;2338;49.602;8.722;2023-03-12T16:17:51;11.50;99.90
4651;DHT22;2338;49.602;8.722;2023-03-12T16:20:38;11.50;99.90
4651;DHT22;2338;49.602;8.722;2023-03-12T16:23:24;11.50;99.90
4651;DHT22;2338;49.602;8.722;2023-03-12T16:26:10;11.50;99.90
4651;DHT22;2338;49.602;8.722;2023-03-12T16:28:57;11.50;99.90
4651;DHT22;2338;49.602;8.722;2023-03-12T16:31:43;11.50;99.90
4651;DHT22;2338;49.602;8.722;2023-03-12T16:34:29;11.50;99.90
4651;DHT22;2338;49.602;8.722;2023-03-12T16:37:16;11.50;99.90
4651;DHT22;2338;49.602;8.722;2023-03-12T16:40:02;11.50;99.90
4651;DHT22;2338;49.602;8.722;2023-03-12T16:42:50;11.40;99.90
4651;DHT22;2338;49.602;8.722;2023-03-12T16:45:41;11.40;99.90
4651;DHT22;2338;49.602;8.722;2023-03-12T16:48:27;11.50;99.90
4651;DHT22;2338;49.602;8.722;2023-03-12T16:51:14;11.50;99.90
4651;DHT22;2338;49.602;8.722;2023-03-12T16:54:01;11.50;99.90
4651;DHT22;2338;49.602;8.722;2023-03-12T16:56:47;11.50;99.90
4651;DHT22;2338;49.602;8.722;2023-03-12T16:59:34;11.50;99.90
4651;DHT22;2338;49.602;8.722;2023-03-12T17:02:21;11.50;99.90
4651;DHT22;2338;49.602;8.722;2023-03-12T17:05:07;11.40;99.90
4651;DHT22;2338;49.602;8.722;2023-03-12T17:07:53;11.40;99.90
4651;DHT22;2338;49.602;8.722;2023-03-12T17:10:40;11.40;99.90
4651;DHT22;2338;49.602;8.722;2023-03-12T17:13:27;11.30;99.90
4651;DHT22;2338;49.602;8.722;2023-03-12T17:16:13;11.30;99.90
4651;DHT22;2338;49.602;8.722;2023-03-12T17:18:58;11.30;99.90
4651;DHT22;2338;49.602;8.722;2023-03-12T17:21:44;11.30;99.90
4651;DHT22;2338;49.602;8.722;2023-03-12T17:24:31;11.30;99.90
4651;DHT22;2338;49.602;8.722;2023-03-12T17:27:18;11.30;99.90
4651;DHT22;2338;49.602;8.722;2023-03-12T17:30:04;11.20;99.90
4651;DHT22;2338;49.602;8.722;2023-03-12T17:32:51;11.20;99.90
4651;DHT22;2338;49.602;8.722;2023-03-12T17:35:37;11.20;99.90
4651;DHT22;2338;49.602;8.722;2023-03-12T17:38:22;11.10;99.90
4651;DHT22;2338;49.602;8.722;2023-03-12T17:41:08;11.10;99.90
4651;DHT22;2338;49.602;8.722;2023-03-12T17:43:57;11.10;99.90
4651;DHT22;2338;49.602;8.722;2023-03-12T17:46:45;11.00;99.90
4651;DHT22;2338;49.602;8.722;2023-03-12T17:49:31;11.00;99.90
4651;DHT22;2338;49.602;8.722;2023-03-12T17:52:17;11.00;99.90
4651;DHT22;2338;49.602;8.722;2023-03-12T17:55:03;11.00;99.90
4651;DHT22;2338;49.602;8.722;2023-03-12T17:57:49;10.90;99.90
4651;DHT22;2338;49.602;8.722;2023-03-12T18:00:36;10.80;99.90
4651;DHT22;2338;49.602;8.722;2023-03-12T18:03:22;10.80;99.90
4651;DHT22;2338;49.602;8.722;2023-03-12T18:06:07;10.80;99.90
4651;DHT22;2338;49.602;8.722;2023-03-12T18:08:53;10.80;99.90
4651;DHT22;2338;49.602;8.722;2023-03-12T18:11:39;10.70;99.90
4651;DHT22;2338;49.602;8.722;2023-03-12T18:14:25;10.80;99.90
4651;DHT22;2338;49.602;8.722;2023-03-12T18:17:11;10.70;99.90
4651;DHT22;2338;49.602;8.722;2023-03-12T18:19:57;10.70;99.90
4651;DHT22;2338;49.602;8.722;2023-03-12T18:22:43;10.70;99.90
4651;DHT22;2338;49.602;8.722;2023-03-12T18:25:28;10.70;99.90
4651;DHT22;2338;49.602;8.722;2023-03-12T18:28:14;10.60;99.90
4651;DHT22;2338;49.602;8.722;2023-03-12T18:31:00;10.60;99.90
4651;DHT22;2338;49.602;8.722;2023-03-12T18:33:48;10.60;99.90